createdAt,value
2022-11-20T00:01:52.748Z,5.80
2022-11-20T00:04:19.423Z,5.80
2022-11-20T00:06:46.045Z,5.80
2022-11-20T00:09:12.713Z,5.70
2022-11-20T00:11:39.323Z,5.90
2022-11-20T00:14:05.974Z,5.60
2022-11-20T00:16:32.605Z,5.60
2022-11-20T00:18:59.248Z,5.70
2022-11-20T00:21:25.894Z,6.00
2022-11-20T00:23:54.960Z,6.10
2022-11-20T00:26:21.849Z,6.10
2022-11-20T00:28:50.778Z,6.00
2022-11-20T00:31:17.370Z,6.10
2022-11-20T00:33:43.991Z,5.60
2022-11-20T00:36:10.605Z,5.40
2022-11-20T00:38:37.249Z,5.40
2022-11-20T00:41:03.907Z,5.70
2022-11-20T00:43:30.527Z,6.10
2022-11-20T00:45:57.183Z,6.20
2022-11-20T00:48:23.838Z,5.90
2022-11-20T00:50:50.446Z,5.80
2022-11-20T00:53:17.074Z,5.80
2022-11-20T00:55:43.731Z,5.90
2022-11-20T00:58:14.189Z,5.90
2022-11-20T01:00:41.133Z,6.00
2022-11-20T01:03:07.744Z,5.80
2022-11-20T01:05:34.411Z,6.00
2022-11-20T01:08:01.007Z,5.30
2022-11-20T01:10:27.658Z,5.50
2022-11-20T01:12:54.258Z,5.60
2022-11-20T01:15:20.936Z,5.10
2022-11-20T01:17:47.593Z,5.00
2022-11-20T01:20:14.249Z,5.10
2022-11-20T01:22:40.933Z,5.00
2022-11-20T01:25:07.529Z,4.80
2022-11-20T01:27:34.157Z,4.60
2022-11-20T01:30:01.387Z,5.00
2022-11-20T01:32:28.266Z,5.50
2022-11-20T01:34:54.878Z,5.60
2022-11-20T01:37:21.539Z,5.40
2022-11-20T01:39:48.201Z,5.60
2022-11-20T01:42:14.865Z,5.80
2022-11-20T01:44:41.539Z,5.80
2022-11-20T01:47:08.175Z,5.80
2022-11-20T01:49:34.784Z,5.80
2022-11-20T01:52:01.473Z,5.90
2022-11-20T01:54:28.155Z,5.40
2022-11-20T01:56:54.807Z,5.50
2022-11-20T01:59:21.945Z,5.70
2022-11-20T02:01:48.880Z,5.70
2022-11-20T02:04:15.555Z,5.30
2022-11-20T02:06:42.683Z,5.70
2022-11-20T02:09:09.317Z,6.00
2022-11-20T02:11:35.908Z,6.30
2022-11-20T02:14:02.557Z,6.40
2022-11-20T02:16:29.178Z,6.40
2022-11-20T02:18:55.781Z,6.40
2022-11-20T02:21:22.396Z,6.40
2022-11-20T02:23:49.027Z,6.40
2022-11-20T02:26:15.661Z,6.00
2022-11-20T02:28:42.257Z,5.80
2022-11-20T02:31:08.834Z,5.90
2022-11-20T02:33:35.541Z,5.90
2022-11-20T02:36:02.207Z,6.20
2022-11-20T02:38:28.831Z,6.20
2022-11-20T02:40:55.956Z,5.90
2022-11-20T02:43:22.699Z,6.00
2022-11-20T02:45:49.280Z,6.20
2022-11-20T02:48:15.876Z,6.20
2022-11-20T02:50:42.533Z,6.40
2022-11-20T02:53:09.162Z,6.50
2022-11-20T02:55:35.846Z,6.50
2022-11-20T02:58:02.497Z,6.00
2022-11-20T03:00:29.166Z,6.00
2022-11-20T03:02:55.773Z,5.90
2022-11-20T03:05:22.422Z,5.90
2022-11-20T03:07:49.039Z,6.30
2022-11-20T03:10:15.613Z,6.50
2022-11-20T03:12:42.225Z,6.70
2022-11-20T03:15:08.850Z,6.60
2022-11-20T03:17:35.476Z,6.40
2022-11-20T03:20:02.084Z,6.40
2022-11-20T03:22:28.710Z,6.50
2022-11-20T03:24:55.320Z,6.60
2022-11-20T03:27:21.960Z,6.60
2022-11-20T03:29:48.567Z,6.60
2022-11-20T03:32:15.167Z,6.70
2022-11-20T03:34:41.763Z,6.80
2022-11-20T03:37:08.374Z,6.70
2022-11-20T03:39:35.015Z,6.20
2022-11-20T03:42:01.682Z,6.00
2022-11-20T03:44:28.295Z,6.10
2022-11-20T03:46:54.945Z,6.40
2022-11-20T03:49:21.964Z,6.60
2022-11-20T03:51:48.833Z,6.70
2022-11-20T03:54:15.462Z,6.60
2022-11-20T03:56:42.065Z,6.70
2022-11-20T03:59:08.668Z,6.70
2022-11-20T04:01:35.389Z,6.60
2022-11-20T04:04:02.029Z,6.60
2022-11-20T04:06:28.640Z,6.50
2022-11-20T04:08:55.225Z,6.60
2022-11-20T04:11:21.845Z,6.70
2022-11-20T04:13:48.552Z,6.70
2022-11-20T04:16:15.193Z,6.40
2022-11-20T04:18:41.789Z,5.80
2022-11-20T04:21:08.410Z,6.00
2022-11-20T04:23:35.003Z,6.10
2022-11-20T04:26:01.625Z,5.80
2022-11-20T04:28:28.212Z,6.10
2022-11-20T04:30:54.853Z,6.40
2022-11-20T04:33:21.516Z,6.50
2022-11-20T04:35:48.121Z,6.60
2022-11-20T04:38:14.706Z,6.60
2022-11-20T04:40:41.343Z,6.60
2022-11-20T04:43:07.988Z,6.70
2022-11-20T04:45:34.621Z,6.70
2022-11-20T04:48:01.282Z,6.50
2022-11-20T04:50:27.969Z,6.30
2022-11-20T04:52:54.636Z,6.30
2022-11-20T04:55:21.234Z,6.50
2022-11-20T04:57:47.881Z,6.50
2022-11-20T05:00:14.512Z,6.30
2022-11-20T05:02:41.448Z,6.30
2022-11-20T05:05:08.101Z,6.20
2022-11-20T05:07:34.824Z,6.40
2022-11-20T05:10:01.467Z,6.40
2022-11-20T05:12:28.109Z,6.00
2022-11-20T05:14:54.889Z,5.80
2022-11-20T05:17:21.551Z,5.80
2022-11-20T05:19:52.021Z,6.10
2022-11-20T05:22:19.738Z,6.20
2022-11-20T05:24:46.678Z,5.80
2022-11-20T05:27:13.333Z,6.00
2022-11-20T05:29:39.956Z,6.10
2022-11-20T05:32:06.624Z,6.10
2022-11-20T05:34:33.220Z,6.00
2022-11-20T05:36:59.852Z,6.20
2022-11-20T05:39:26.470Z,6.30
2022-11-20T05:41:53.095Z,6.20
2022-11-20T05:44:19.743Z,6.00
2022-11-20T05:46:46.373Z,5.70
2022-11-20T05:49:13.015Z,5.80
2022-11-20T05:51:39.702Z,6.10
2022-11-20T05:54:06.396Z,6.20
2022-11-20T05:56:33.066Z,6.30
2022-11-20T05:58:59.710Z,6.10
2022-11-20T06:01:26.373Z,6.20
2022-11-20T06:03:52.976Z,6.20
2022-11-20T06:06:19.594Z,6.20
2022-11-20T06:08:46.243Z,6.10
2022-11-20T06:11:12.836Z,6.20
2022-11-20T06:13:42.350Z,6.20
2022-11-20T06:16:09.302Z,5.70
2022-11-20T06:18:35.958Z,5.40
2022-11-20T06:21:02.560Z,5.60
2022-11-20T06:23:29.190Z,5.90
2022-11-20T06:25:55.812Z,6.10
2022-11-20T06:28:22.458Z,6.20
2022-11-20T06:30:49.123Z,6.30
2022-11-20T06:33:15.770Z,6.20
2022-11-20T06:35:42.490Z,6.30
2022-11-20T06:38:09.178Z,6.40
2022-11-20T06:40:35.828Z,6.40
2022-11-20T06:43:02.460Z,6.50
2022-11-20T06:45:29.105Z,6.00
2022-11-20T06:47:55.729Z,6.10
2022-11-20T06:50:22.312Z,6.30
2022-11-20T06:52:48.969Z,6.40
2022-11-20T06:55:15.605Z,6.40
2022-11-20T06:57:42.247Z,6.50
2022-11-20T07:00:08.930Z,6.30
2022-11-20T07:02:35.562Z,6.20
2022-11-20T07:05:02.222Z,6.20
2022-11-20T07:07:28.880Z,6.40
2022-11-20T07:09:55.523Z,5.90
2022-11-20T07:12:22.187Z,5.80
2022-11-20T07:14:48.797Z,5.60
2022-11-20T07:17:15.450Z,5.90
2022-11-20T07:19:42.115Z,6.00
2022-11-20T07:22:08.760Z,6.30
2022-11-20T07:24:35.437Z,6.50
2022-11-20T07:27:02.064Z,6.40
2022-11-20T07:29:28.701Z,6.40
2022-11-20T07:31:55.329Z,6.20
2022-11-20T07:34:22.021Z,6.40
2022-11-20T07:36:48.601Z,6.40
2022-11-20T07:39:15.219Z,6.50
2022-11-20T07:41:41.850Z,6.50
2022-11-20T07:44:08.506Z,6.60
2022-11-20T07:46:35.128Z,6.70
2022-11-20T07:49:01.799Z,6.80
2022-11-20T07:51:28.511Z,6.90
2022-11-20T07:53:55.140Z,6.60
2022-11-20T07:56:21.743Z,6.80
2022-11-20T07:58:48.400Z,6.80
2022-11-20T08:01:15.104Z,6.40
2022-11-20T08:03:41.797Z,6.70
2022-11-20T08:06:08.436Z,7.10
2022-11-20T08:08:38.860Z,7.20
2022-11-20T08:11:08.986Z,7.10
2022-11-20T08:13:35.612Z,6.70
2022-11-20T08:16:02.253Z,6.40
2022-11-20T08:18:31.806Z,6.70
2022-11-20T08:20:58.953Z,6.60
2022-11-20T08:23:25.552Z,6.30
2022-11-20T08:25:52.333Z,6.50
2022-11-20T08:28:21.581Z,6.60
2022-11-20T08:30:48.643Z,7.00
2022-11-20T08:33:15.310Z,7.30
2022-11-20T08:35:42.059Z,7.20
2022-11-20T08:38:08.663Z,7.30
2022-11-20T08:40:35.333Z,7.20
2022-11-20T08:43:02.005Z,7.00
2022-11-20T08:45:33.773Z,6.70
2022-11-20T08:48:01.450Z,6.50
2022-11-20T08:50:28.059Z,6.80
2022-11-20T08:52:54.752Z,7.20
2022-11-20T08:55:21.395Z,7.30
2022-11-20T08:57:50.764Z,7.50
2022-11-20T09:00:17.578Z,7.50
2022-11-20T09:02:44.223Z,7.40
2022-11-20T09:05:10.898Z,7.60
2022-11-20T09:07:37.571Z,7.60
2022-11-20T09:10:23.050Z,7.80
2022-11-20T09:12:50.498Z,7.80
2022-11-20T09:15:17.125Z,7.10
2022-11-20T09:17:43.722Z,7.00
2022-11-20T09:20:10.378Z,7.40
2022-11-20T09:22:37.039Z,7.50
2022-11-20T09:25:03.706Z,7.40
2022-11-20T09:27:30.372Z,7.50
2022-11-20T09:29:57.060Z,7.40
2022-11-20T09:32:23.658Z,7.50
2022-11-20T09:34:50.354Z,7.70
2022-11-20T09:37:17.026Z,7.80
2022-11-20T09:39:43.674Z,8.00
2022-11-20T09:42:10.283Z,7.90
2022-11-20T09:44:36.982Z,8.00
2022-11-20T09:47:03.632Z,8.00
2022-11-20T09:49:32.641Z,8.10
2022-11-20T09:51:59.599Z,8.00
2022-11-20T09:54:26.287Z,7.50
2022-11-20T09:56:53.912Z,7.90
2022-11-20T09:59:20.789Z,8.20
2022-11-20T10:01:47.708Z,8.30
2022-11-20T10:04:20.582Z,8.40
2022-11-20T10:06:59.498Z,8.50
2022-11-20T10:09:34.552Z,8.60
2022-11-20T10:12:01.234Z,8.70
2022-11-20T10:14:27.850Z,8.80
2022-11-20T10:16:54.503Z,8.90
2022-11-20T10:19:21.370Z,9.20
2022-11-20T10:21:48.267Z,9.40
2022-11-20T10:24:14.902Z,9.30
2022-11-20T10:26:41.494Z,9.20
2022-11-20T10:29:09.092Z,9.40
2022-11-20T10:31:35.942Z,9.40
2022-11-20T10:34:12.012Z,9.40
2022-11-20T10:36:39.741Z,8.80
2022-11-20T10:39:06.435Z,8.30
2022-11-20T10:41:35.914Z,8.50
2022-11-20T10:44:03.793Z,8.50
2022-11-20T10:46:30.391Z,9.00
2022-11-20T10:48:57.046Z,9.50
2022-11-20T10:51:23.732Z,9.90
2022-11-20T10:53:50.374Z,9.90
2022-11-20T10:56:17.077Z,10.00
2022-11-20T10:58:43.726Z,9.30
2022-11-20T11:01:10.439Z,9.80
2022-11-20T11:03:37.134Z,10.00
2022-11-20T11:06:03.839Z,9.50
2022-11-20T11:08:30.494Z,9.70
2022-11-20T11:10:57.170Z,9.80
2022-11-20T11:13:23.848Z,9.50
2022-11-20T11:15:50.532Z,9.60
2022-11-20T11:18:17.150Z,10.10
2022-11-20T11:20:43.796Z,10.00
2022-11-20T11:23:10.491Z,10.10
2022-11-20T11:25:37.255Z,9.40
2022-11-20T11:28:03.883Z,9.50
2022-11-20T11:30:30.512Z,9.40
2022-11-20T11:32:57.153Z,9.90
2022-11-20T11:35:23.841Z,10.00
2022-11-20T11:37:50.446Z,9.40
2022-11-20T11:40:23.760Z,9.50
2022-11-20T11:42:50.824Z,9.80
2022-11-20T11:45:17.473Z,10.20
2022-11-20T11:47:44.152Z,9.90
2022-11-20T11:50:11.124Z,10.20
2022-11-20T11:52:37.787Z,10.20
2022-11-20T11:55:10.073Z,10.40
2022-11-20T11:57:38.205Z,10.20
2022-11-20T12:00:04.853Z,10.50
2022-11-20T12:02:31.539Z,10.90
2022-11-20T12:04:58.187Z,10.60
2022-11-20T12:07:45.532Z,11.10
2022-11-20T12:10:11.434Z,10.80
2022-11-20T12:12:38.028Z,10.70
2022-11-20T12:15:04.709Z,10.70
2022-11-20T12:17:31.366Z,10.90
2022-11-20T12:19:57.999Z,11.30
2022-11-20T12:22:24.647Z,11.90
2022-11-20T12:24:51.347Z,10.90
2022-11-20T12:27:17.981Z,10.30
2022-11-20T12:29:44.616Z,10.20
2022-11-20T12:32:11.299Z,10.40
2022-11-20T12:34:37.957Z,10.80
2022-11-20T12:37:04.556Z,11.40
2022-11-20T12:39:31.191Z,11.60
2022-11-20T12:41:57.810Z,11.70
2022-11-20T12:44:24.405Z,11.70
2022-11-20T12:46:51.366Z,11.40
2022-11-20T12:49:18.030Z,11.40
2022-11-20T12:51:44.724Z,11.40
2022-11-20T12:54:11.333Z,11.40
2022-11-20T12:56:37.921Z,11.30
2022-11-20T12:59:04.619Z,11.20
2022-11-20T13:01:31.242Z,11.10
2022-11-20T13:03:57.886Z,10.90
2022-11-20T13:06:24.520Z,10.90
2022-11-20T13:08:51.167Z,11.40
2022-11-20T13:11:17.757Z,11.90
2022-11-20T13:13:44.382Z,11.90
2022-11-20T13:16:14.399Z,11.80
2022-11-20T13:18:41.825Z,11.80
2022-11-20T13:21:08.433Z,11.60
2022-11-20T13:23:35.066Z,11.60
2022-11-20T13:26:01.712Z,11.60
2022-11-20T13:28:28.439Z,11.70
2022-11-20T13:30:55.042Z,12.10
2022-11-20T13:33:21.709Z,11.40
2022-11-20T13:35:48.384Z,12.00
2022-11-20T13:38:15.022Z,11.80
2022-11-20T13:40:44.674Z,11.80
2022-11-20T13:43:11.354Z,11.70
2022-11-20T13:45:38.051Z,11.70
2022-11-20T13:48:04.711Z,12.00
2022-11-20T13:50:31.373Z,12.10
2022-11-20T13:52:58.043Z,11.90
2022-11-20T13:55:24.652Z,12.10
2022-11-20T13:57:52.184Z,11.80
2022-11-20T14:00:19.000Z,11.90
2022-11-20T14:02:45.667Z,12.30
2022-11-20T14:05:12.253Z,12.50
2022-11-20T14:07:38.918Z,11.30
2022-11-20T14:10:05.646Z,11.50
2022-11-20T14:12:32.349Z,11.40
2022-11-20T14:14:59.028Z,11.50
2022-11-20T14:17:25.672Z,11.20
2022-11-20T14:19:52.278Z,11.40
2022-11-20T14:22:18.930Z,11.20
2022-11-20T14:24:45.555Z,11.30
2022-11-20T14:27:12.219Z,10.90
2022-11-20T14:29:38.871Z,10.90
2022-11-20T14:32:05.535Z,10.80
2022-11-20T14:34:32.199Z,10.90
2022-11-20T14:36:58.835Z,10.80
2022-11-20T14:39:25.521Z,10.80
2022-11-20T14:41:52.195Z,11.00
2022-11-20T14:44:18.867Z,11.00
2022-11-20T14:46:45.593Z,10.90
2022-11-20T14:49:12.292Z,10.60
2022-11-20T14:51:38.949Z,10.80
2022-11-20T14:54:05.630Z,10.80
2022-11-20T14:56:32.273Z,10.70
2022-11-20T14:58:58.903Z,10.40
2022-11-20T15:01:25.509Z,10.20
2022-11-20T15:03:52.243Z,10.10
2022-11-20T15:06:18.884Z,10.30
2022-11-20T15:08:45.551Z,10.40
2022-11-20T15:11:12.195Z,10.40
2022-11-20T15:13:38.846Z,10.40
2022-11-20T15:16:05.543Z,10.30
2022-11-20T15:18:32.584Z,10.30
2022-11-20T15:20:59.223Z,10.10
2022-11-20T15:23:25.878Z,9.90
2022-11-20T15:25:52.534Z,9.70
2022-11-20T15:28:19.169Z,9.40
2022-11-20T15:30:45.815Z,9.10
2022-11-20T15:33:12.496Z,9.00
2022-11-20T15:35:39.119Z,9.20
2022-11-20T15:38:05.792Z,9.20
2022-11-20T15:40:32.433Z,9.30
2022-11-20T15:42:59.115Z,9.40
2022-11-20T15:45:25.714Z,9.30
2022-11-20T15:47:52.361Z,9.40
2022-11-20T15:50:19.044Z,9.30
2022-11-20T15:52:45.673Z,9.00
2022-11-20T15:55:12.323Z,8.70
2022-11-20T15:57:38.931Z,8.50
2022-11-20T16:00:05.575Z,8.70
2022-11-20T16:02:32.221Z,8.90
2022-11-20T16:04:58.884Z,9.00
2022-11-20T16:07:25.620Z,8.90
2022-11-20T16:09:52.359Z,8.90
2022-11-20T16:12:18.999Z,8.80
2022-11-20T16:14:45.682Z,8.50
2022-11-20T16:17:12.302Z,8.20
2022-11-20T16:19:38.946Z,8.50
2022-11-20T16:22:05.615Z,8.50
2022-11-20T16:24:32.308Z,8.60
2022-11-20T16:26:58.967Z,8.60
2022-11-20T16:29:25.549Z,8.40
2022-11-20T16:31:52.194Z,8.60
2022-11-20T16:34:18.849Z,8.70
2022-11-20T16:36:45.525Z,8.80
2022-11-20T16:39:12.191Z,8.90
2022-11-20T16:41:38.843Z,8.60
2022-11-20T16:44:05.545Z,8.10
2022-11-20T16:46:32.205Z,8.40
2022-11-20T16:48:58.869Z,8.70
2022-11-20T16:51:25.542Z,8.70
2022-11-20T16:53:52.213Z,8.20
2022-11-20T16:56:18.941Z,8.20
2022-11-20T16:58:45.660Z,8.10
2022-11-20T17:01:12.303Z,8.20
2022-11-20T17:03:38.991Z,8.20
2022-11-20T17:06:05.642Z,8.40
2022-11-20T17:08:32.419Z,8.60
2022-11-20T17:13:43.276Z,8.60
2022-11-20T17:16:09.922Z,8.70
2022-11-20T17:18:36.568Z,8.80
2022-11-20T17:21:03.234Z,8.90
2022-11-20T17:23:29.886Z,8.50
2022-11-20T17:25:56.480Z,8.30
2022-11-20T17:28:23.147Z,8.30
2022-11-20T17:30:49.756Z,8.60
2022-11-20T17:33:16.401Z,8.60
2022-11-20T17:35:43.043Z,8.20
2022-11-20T17:38:09.663Z,8.10
2022-11-20T17:40:36.257Z,8.30
2022-11-20T17:43:02.887Z,8.50
2022-11-20T17:45:29.583Z,8.30
2022-11-20T17:47:56.242Z,7.80
2022-11-20T17:50:22.862Z,7.50
2022-11-20T17:52:49.554Z,7.50
2022-11-20T17:55:16.196Z,7.30
2022-11-20T17:57:42.817Z,7.30
2022-11-20T18:00:09.454Z,7.50
2022-11-20T18:02:36.098Z,7.60
2022-11-20T18:05:02.754Z,7.80
2022-11-20T18:07:29.433Z,8.00
2022-11-20T18:09:56.161Z,7.90
2022-11-20T18:12:22.788Z,8.30
2022-11-20T18:14:49.464Z,8.40
2022-11-20T18:17:16.149Z,8.20
2022-11-20T18:19:55.715Z,8.20
2022-11-20T18:22:29.412Z,8.30
2022-11-20T18:24:56.058Z,8.20
2022-11-20T18:27:22.756Z,8.20
2022-11-20T18:29:49.364Z,8.10
2022-11-20T18:32:15.972Z,8.30
2022-11-20T18:34:42.619Z,8.30
2022-11-20T18:37:09.289Z,8.60
2022-11-20T18:39:35.945Z,8.70
2022-11-20T18:42:02.538Z,8.90
2022-11-20T18:44:29.201Z,8.90
2022-11-20T18:46:55.828Z,8.90
2022-11-20T18:49:22.418Z,8.90
2022-11-20T18:51:49.118Z,8.60
2022-11-20T18:54:15.786Z,8.60
2022-11-20T18:56:42.408Z,8.80
2022-11-20T18:59:09.038Z,8.30
2022-11-20T19:01:35.737Z,8.40
2022-11-20T19:04:02.428Z,8.60
2022-11-20T19:06:29.045Z,8.70
2022-11-20T19:08:58.659Z,8.30
2022-11-20T19:11:25.302Z,8.20
2022-11-20T19:13:51.930Z,8.50
2022-11-20T19:16:19.556Z,8.60
2022-11-20T19:18:46.192Z,8.50
2022-11-20T19:21:12.809Z,8.50
2022-11-20T19:23:39.478Z,8.20
2022-11-20T19:26:06.149Z,7.90
2022-11-20T19:28:32.804Z,7.90
2022-11-20T19:31:00.776Z,8.10
2022-11-20T19:33:27.400Z,8.30
2022-11-20T19:35:54.011Z,8.40
2022-11-20T19:38:20.689Z,8.50
2022-11-20T19:40:47.335Z,8.60
2022-11-20T19:43:14.030Z,8.50
2022-11-20T19:45:40.634Z,8.40
2022-11-20T19:48:08.461Z,8.30
2022-11-20T19:50:37.445Z,8.20
2022-11-20T19:53:04.097Z,8.00
2022-11-20T19:55:30.787Z,7.90
2022-11-20T19:57:57.424Z,7.90
2022-11-20T20:00:29.549Z,7.80
2022-11-20T20:02:59.143Z,7.60
2022-11-20T20:05:25.817Z,7.50
2022-11-20T20:07:52.467Z,6.90
2022-11-20T20:10:19.116Z,6.60
2022-11-20T20:12:45.760Z,6.70
2022-11-20T20:15:12.383Z,6.90
2022-11-20T20:17:39.142Z,7.00
2022-11-20T20:20:05.817Z,6.80
2022-11-20T20:22:32.485Z,6.70
2022-11-20T20:25:02.196Z,6.80
2022-11-20T20:27:28.852Z,6.60
2022-11-20T20:29:55.838Z,6.60
2022-11-20T20:32:22.472Z,6.70
2022-11-20T20:34:49.092Z,6.70
2022-11-20T20:37:15.725Z,6.50
2022-11-20T20:39:42.407Z,6.50
2022-11-20T20:42:09.027Z,6.60
2022-11-20T20:44:35.656Z,6.30
2022-11-20T20:47:02.282Z,6.00
2022-11-20T20:52:13.169Z,6.10
2022-11-20T20:54:39.822Z,6.10
2022-11-20T20:57:06.451Z,5.60
2022-11-20T20:59:33.046Z,5.60
2022-11-20T21:01:59.715Z,5.60
2022-11-20T21:04:26.346Z,5.70
2022-11-20T21:06:52.988Z,5.60
2022-11-20T21:09:19.625Z,5.60
2022-11-20T21:11:46.288Z,5.50
2022-11-20T21:14:12.962Z,5.90
2022-11-20T21:16:39.619Z,6.10
2022-11-20T21:19:06.329Z,6.10
2022-11-20T21:21:32.943Z,6.00
2022-11-20T21:23:59.587Z,5.90
2022-11-20T21:26:26.253Z,6.00
2022-11-20T21:28:52.898Z,5.70
2022-11-20T21:31:19.610Z,5.60
2022-11-20T21:33:47.254Z,5.80
2022-11-20T21:36:13.932Z,6.00
2022-11-20T21:38:42.742Z,6.10
2022-11-20T21:41:09.381Z,6.10
2022-11-20T21:43:36.083Z,6.20
2022-11-20T21:46:02.705Z,6.00
2022-11-20T21:48:29.322Z,5.80
2022-11-20T21:50:55.916Z,5.90
2022-11-20T21:53:22.537Z,5.80
2022-11-20T21:55:49.165Z,5.80
2022-11-20T21:58:15.824Z,5.80
2022-11-20T22:00:42.479Z,5.50
2022-11-20T22:03:09.172Z,5.60
2022-11-20T22:05:35.772Z,5.70
2022-11-20T22:08:02.485Z,5.80
2022-11-20T22:10:29.119Z,5.80
2022-11-20T22:12:55.766Z,5.50
2022-11-20T22:15:53.275Z,5.60
2022-11-20T22:18:09.014Z,5.30
2022-11-20T22:20:35.619Z,5.10
2022-11-20T22:23:02.287Z,5.00
2022-11-20T22:25:28.912Z,4.80
2022-11-20T22:27:55.580Z,5.10
2022-11-20T22:30:22.266Z,5.10
2022-11-20T22:32:48.887Z,5.20
2022-11-20T22:35:15.547Z,5.40
2022-11-20T22:37:42.716Z,5.40
2022-11-20T22:40:09.385Z,5.40
2022-11-20T22:42:36.066Z,5.40
2022-11-20T22:45:02.685Z,5.00
2022-11-20T22:47:29.340Z,4.80
2022-11-20T22:49:55.988Z,4.70
2022-11-20T22:52:22.679Z,4.80
2022-11-20T22:54:49.343Z,4.80
2022-11-20T22:57:16.008Z,4.60
2022-11-20T22:59:42.710Z,4.60
2022-11-20T23:02:09.381Z,4.80
2022-11-20T23:04:36.050Z,5.00
2022-11-20T23:07:02.831Z,5.10
2022-11-20T23:09:29.551Z,5.20
2022-11-20T23:11:56.172Z,5.10
2022-11-20T23:14:27.547Z,4.80
2022-11-20T23:16:54.570Z,4.40
2022-11-20T23:19:21.222Z,4.20
2022-11-20T23:21:47.856Z,4.40
2022-11-20T23:24:14.506Z,4.60
2022-11-20T23:26:41.139Z,4.70
2022-11-20T23:29:07.832Z,4.70
2022-11-20T23:31:34.539Z,4.80
2022-11-20T23:34:01.170Z,5.00
2022-11-20T23:36:27.793Z,5.10
2022-11-20T23:38:54.425Z,5.10
2022-11-20T23:41:21.087Z,4.80
2022-11-20T23:43:47.719Z,4.80
2022-11-20T23:46:16.837Z,4.70
2022-11-20T23:48:43.772Z,4.40
2022-11-20T23:51:10.426Z,4.30
2022-11-20T23:53:37.052Z,4.00
2022-11-20T23:56:03.685Z,3.80
2022-11-20T23:58:30.351Z,4.00
